EGCC Airport Information

Runway Information
Runway 05L Length 10000 ft width 150 ft
Elevation 212 ft Threshold 1401 ft Heading 51
Runway 23R Length 10000 ft Width 150 ft
Elevation 249 ft Threshold 600 ft Heading 231
Runway 05R Length 9997 ft width 150 ft
Elevation 186 ft Threshold 604 ft Heading 51
Runway 23L Length 9997 ft Width 150 ft
Elevation 227 ft Threshold 604 ft Heading 231
Airport Frequencies
Type APP Name APP Frequency 135 MHZ
Type ATIS Name ATIS Frequency 128.175 MHZ
Type CLD Name CLNC DEL Frequency 121.7 MHZ
Type GND Name GND Frequency 121.85 MHZ
Type TWR Name TWR Frequency 118.625 MHZ
Airport Navaids
Type NDB Name Manchester Frequency 428 KHZ
Type VOR-DME Name Manchester Frequency 113550 KHZ
Airport Weather Information & NOTAM
ADDS - METARS form results

(2056 UTC 09 April 2020)
Data provider http://aviationweather.gov/metar/data/
 
METAR text: EGCC 092050Z AUTO 05003KT 9999 NCD 10/07 Q1026
Conditions at: EGCC (MANCHESTER INTL , GB) observed 2050 UTC 09 April 2020
Temperature: 10.0°C (50°F)
Dewpoint: 7.0°C (45°F) [RH = 82%]
Pressure (altimeter): 30.30 inches Hg (1026.0 mb)
Winds: from the NE (50 degrees) at 3 MPH (3 knots; 1.5 m/s)
Visibility: 6 or more miles (10+ km)
Ceiling: at least 12,000 feet AGL
Clouds: sky clear below 12,000 feet AGL
Weather: no significant weather observed at this time

METAR text: EGCC 092020Z AUTO VRB03KT 9999 NCD 11/07 Q1026 NOSIG
Conditions at: EGCC (MANCHESTER INTL , GB) observed 2020 UTC 09 April 2020
Temperature: 11.0°C (52°F)
Dewpoint: 7.0°C (45°F) [RH = 76%]
Pressure (altimeter): 30.30 inches Hg (1026.0 mb)
Winds: variable direction winds at 3 MPH (3 knots; 1.5 m/s)
Visibility: 6 or more miles (10+ km)
Ceiling: at least 12,000 feet AGL
Clouds: sky clear below 12,000 feet AGL
Weather: no significant weather observed at this time

Forecast for: EGCC (MANCHESTER INTL , GB)
Text: TAF EGCC 091701Z 0918/1024 06005KT 9999 FEW040
Forecast period: 1800 UTC 09 April 2020 to 0000 UTC 11 April 2020
Forecast type: FROM: standard forecast or significant change
Winds: from the ENE (60 degrees) at 6 MPH (5 knots; 2.6 m/s)
Visibility: 6 or more miles 10+ km)
Ceiling: at least 12,000 feet AGL
Clouds: few clouds at 4000 feet AGL
Weather: no significant weather forecast for this period
Text: PROB40 1000/1008 8000
Forecast period: 0000 to 0800 UTC 10 April 2020
Forecast type: PROBABLE: 40 percent likelihood of the following during this time
Visibility: 5 miles (8 km)
Ceiling: unknown
Clouds: missing
Weather: no significant weather forecast for this period
Text: PROB40
Forecast period: 1500 to 2000 UTC 10 April 2020
Forecast type: TEMPORARY: The following changes expected for less than half the time period
Visibility: 2.49 miles (4.01 km)
Ceiling: unknown
Clouds: missing
Weather: SHRA  (rain showers)